createdAt,value
2022-11-17T00:01:09.275Z,2.17
2022-11-17T00:03:36.016Z,1.98
2022-11-17T00:06:02.672Z,1.75
2022-11-17T00:08:29.054Z,1.90
2022-11-17T00:10:55.450Z,1.75
2022-11-17T00:13:21.838Z,2.10
2022-11-17T00:15:48.272Z,1.70
2022-11-17T00:18:14.698Z,2.17
2022-11-17T00:20:41.084Z,1.80
2022-11-17T00:23:07.456Z,2.05
2022-11-17T00:25:33.945Z,2.15
2022-11-17T00:28:00.359Z,1.85
2022-11-17T00:30:26.938Z,1.75
2022-11-17T00:32:53.336Z,1.88
2022-11-17T00:35:19.741Z,1.65
2022-11-17T00:37:46.129Z,1.50
2022-11-17T00:40:12.533Z,1.60
2022-11-17T00:42:38.920Z,1.30
2022-11-17T00:45:05.337Z,1.50
2022-11-17T00:47:31.725Z,1.50
2022-11-17T00:49:58.128Z,1.50
2022-11-17T00:52:24.523Z,1.35
2022-11-17T00:54:50.906Z,1.58
2022-11-17T00:57:17.342Z,1.30
2022-11-17T00:59:43.777Z,1.70
2022-11-17T01:02:10.165Z,1.52
2022-11-17T01:04:36.569Z,1.33
2022-11-17T01:07:03.056Z,1.50
2022-11-17T01:09:29.465Z,1.30
2022-11-17T01:11:55.869Z,1.55
2022-11-17T01:14:22.276Z,1.50
2022-11-17T01:16:48.674Z,1.23
2022-11-17T01:19:15.086Z,1.30
2022-11-17T01:21:41.503Z,1.60
2022-11-17T01:24:07.901Z,1.60
2022-11-17T01:26:34.361Z,1.10
2022-11-17T01:29:00.780Z,1.20
2022-11-17T01:31:27.224Z,2.22
2022-11-17T01:33:53.679Z,1.00
2022-11-17T01:36:20.218Z,1.05
2022-11-17T01:38:46.622Z,1.08
2022-11-17T01:41:13.102Z,0.90
2022-11-17T01:43:39.605Z,1.20
2022-11-17T01:46:06.096Z,1.25
2022-11-17T01:48:32.598Z,1.20
2022-11-17T01:50:59.130Z,1.00
2022-11-17T01:53:25.628Z,1.20
2022-11-17T01:55:52.118Z,1.10
2022-11-17T01:58:18.612Z,1.23
2022-11-17T02:00:45.002Z,1.20
2022-11-17T02:03:11.559Z,1.13
2022-11-17T02:05:37.997Z,1.00
2022-11-17T02:08:04.445Z,1.10
2022-11-17T02:10:30.910Z,1.05
2022-11-17T02:12:57.580Z,1.10
2022-11-17T02:15:23.966Z,1.23
2022-11-17T02:17:50.440Z,0.98
2022-11-17T02:20:16.865Z,1.20
2022-11-17T02:22:43.266Z,1.05
2022-11-17T02:25:09.717Z,1.20
2022-11-17T02:27:36.169Z,1.00
2022-11-17T02:30:02.595Z,1.20
2022-11-17T02:32:29.042Z,1.20
2022-11-17T02:34:55.634Z,1.10
2022-11-17T02:37:22.093Z,0.90
2022-11-17T02:39:48.493Z,0.90
2022-11-17T02:42:14.994Z,0.75
2022-11-17T02:44:41.630Z,0.90
2022-11-17T02:47:08.055Z,0.90
2022-11-17T02:49:34.616Z,1.10
2022-11-17T02:52:01.043Z,1.10
2022-11-17T02:54:27.470Z,1.00
2022-11-17T02:56:53.939Z,0.60
2022-11-17T02:59:20.401Z,0.75
2022-11-17T03:01:46.927Z,0.70
2022-11-17T03:04:13.377Z,0.55
2022-11-17T03:06:39.948Z,0.60
2022-11-17T03:09:06.471Z,0.75
2022-11-17T03:11:32.901Z,0.63
2022-11-17T03:13:59.407Z,0.68
2022-11-17T03:16:25.962Z,0.73
2022-11-17T03:18:52.395Z,0.50
2022-11-17T03:21:18.845Z,0.63
2022-11-17T03:23:45.247Z,0.50
2022-11-17T03:26:11.648Z,0.60
2022-11-17T03:28:38.096Z,0.60
2022-11-17T03:31:04.487Z,0.63
2022-11-17T03:33:30.888Z,0.70
2022-11-17T03:35:57.286Z,0.80
2022-11-17T03:38:23.714Z,1.00
2022-11-17T03:40:50.177Z,0.73
2022-11-17T03:43:16.599Z,0.70
2022-11-17T03:45:43.052Z,0.70
2022-11-17T03:48:09.469Z,0.60
2022-11-17T03:50:35.916Z,0.60
2022-11-17T03:53:02.348Z,0.50
2022-11-17T03:55:28.823Z,0.75
2022-11-17T03:57:55.216Z,0.50
2022-11-17T04:00:21.616Z,0.65
2022-11-17T04:02:48.078Z,0.70
2022-11-17T04:05:14.503Z,0.77
2022-11-17T04:07:41.043Z,0.52
2022-11-17T04:10:07.470Z,0.70
2022-11-17T04:12:33.860Z,0.60
2022-11-17T04:15:00.331Z,0.60
2022-11-17T04:17:26.946Z,0.43
2022-11-17T04:19:53.406Z,0.60
2022-11-17T04:22:19.851Z,0.40
2022-11-17T04:24:46.269Z,0.60
2022-11-17T04:27:12.669Z,0.60
2022-11-17T04:29:39.185Z,0.70
2022-11-17T04:32:05.595Z,0.47
2022-11-17T04:34:32.013Z,0.50
2022-11-17T04:36:58.459Z,0.45
2022-11-17T04:39:24.901Z,0.60
2022-11-17T04:41:51.377Z,0.63
2022-11-17T04:44:17.797Z,0.60
2022-11-17T04:46:44.186Z,0.50
2022-11-17T04:49:10.596Z,0.63
2022-11-17T04:51:36.979Z,1.33
2022-11-17T04:54:03.404Z,0.68
2022-11-17T04:56:29.846Z,0.50
2022-11-17T04:58:56.254Z,0.43
2022-11-17T05:01:22.692Z,0.40
2022-11-17T05:03:49.127Z,0.50
2022-11-17T05:06:15.557Z,0.50
2022-11-17T05:08:42.000Z,0.60
2022-11-17T05:11:08.427Z,0.65
2022-11-17T05:13:35.189Z,0.60
2022-11-17T05:16:01.833Z,0.60
2022-11-17T05:18:28.208Z,0.80
2022-11-17T05:20:54.612Z,0.80
2022-11-17T05:23:21.111Z,0.70
2022-11-17T05:25:48.038Z,0.85
2022-11-17T05:28:14.459Z,0.90
2022-11-17T05:30:40.900Z,0.70
2022-11-17T05:33:07.313Z,0.65
2022-11-17T05:35:33.905Z,0.80
2022-11-17T05:38:00.326Z,0.73
2022-11-17T05:40:26.840Z,0.55
2022-11-17T05:42:57.096Z,0.43
2022-11-17T05:45:23.713Z,0.68
2022-11-17T05:47:50.130Z,0.60
2022-11-17T05:50:16.564Z,0.68
2022-11-17T05:52:42.962Z,0.80
2022-11-17T05:55:09.388Z,0.70
2022-11-17T05:57:35.864Z,0.60
2022-11-17T06:00:02.278Z,0.90
2022-11-17T06:02:28.713Z,0.50
2022-11-17T06:04:55.116Z,0.77
2022-11-17T06:07:21.554Z,0.60
2022-11-17T06:09:48.190Z,0.75
2022-11-17T06:12:14.591Z,0.63
2022-11-17T06:14:41.029Z,0.70
2022-11-17T06:17:07.449Z,1.15
2022-11-17T06:19:33.852Z,1.20
2022-11-17T06:22:15.578Z,1.20
2022-11-17T06:24:42.048Z,1.15
2022-11-17T06:27:08.482Z,0.60
2022-11-17T06:29:39.409Z,2.53
2022-11-17T06:32:07.350Z,1.10
2022-11-17T06:34:33.738Z,1.50
2022-11-17T06:37:00.174Z,1.00
2022-11-17T06:39:26.608Z,1.42
2022-11-17T06:41:53.041Z,1.08
2022-11-17T06:44:19.494Z,1.13
2022-11-17T06:46:48.927Z,1.30
2022-11-17T06:49:15.832Z,1.00
2022-11-17T06:51:45.202Z,0.90
2022-11-17T06:54:12.161Z,1.42
2022-11-17T06:56:38.668Z,1.40
2022-11-17T06:59:05.210Z,1.15
2022-11-17T07:01:31.710Z,1.20
2022-11-17T07:03:58.158Z,1.15
2022-11-17T07:06:24.655Z,1.08
2022-11-17T07:08:51.141Z,1.38
2022-11-17T07:11:17.622Z,1.20
2022-11-17T07:13:44.116Z,1.10
2022-11-17T07:16:10.629Z,1.20
2022-11-17T07:18:37.419Z,1.33
2022-11-17T07:21:04.120Z,1.00
2022-11-17T07:23:30.612Z,1.10
2022-11-17T07:42:04.190Z,1.02
2022-11-17T07:44:36.909Z,0.90
2022-11-17T07:49:50.706Z,0.88
2022-11-17T07:52:28.165Z,1.27
2022-11-17T08:00:15.430Z,1.83
2022-11-17T08:02:41.915Z,1.42
2022-11-17T08:05:08.415Z,1.00
2022-11-17T08:07:34.972Z,1.30
2022-11-17T08:10:01.479Z,1.10
2022-11-17T08:12:27.918Z,2.10
2022-11-17T08:14:54.401Z,1.98
2022-11-17T08:17:20.910Z,1.40
2022-11-17T08:19:47.354Z,1.40
2022-11-17T08:22:13.798Z,1.00
2022-11-17T08:24:40.226Z,1.30
2022-11-17T08:27:06.737Z,1.08
2022-11-17T08:29:33.187Z,1.00
2022-11-17T08:31:59.667Z,1.00
2022-11-17T08:34:26.113Z,1.10
2022-11-17T08:36:52.571Z,1.10
2022-11-17T08:39:19.025Z,1.13
2022-11-17T08:41:45.497Z,1.35
2022-11-17T08:44:11.938Z,0.98
2022-11-17T08:46:38.390Z,1.10
2022-11-17T08:49:04.894Z,1.10
2022-11-17T08:51:31.471Z,1.20
2022-11-17T08:53:57.943Z,1.20
2022-11-17T08:56:24.431Z,1.60
2022-11-17T08:58:50.911Z,1.60
2022-11-17T09:01:17.415Z,1.50
2022-11-17T09:03:43.909Z,1.75
2022-11-17T09:06:10.375Z,1.90
2022-11-17T09:08:46.011Z,1.20
2022-11-17T09:11:13.586Z,1.35
2022-11-17T09:13:39.992Z,1.40
2022-11-17T09:16:06.415Z,1.50
2022-11-17T09:18:33.000Z,1.70
2022-11-17T09:20:59.510Z,1.38
2022-11-17T09:23:25.965Z,1.20
2022-11-17T09:25:52.418Z,1.27
2022-11-17T09:28:18.889Z,1.10
2022-11-17T09:30:45.316Z,2.25
2022-11-17T09:33:11.726Z,1.33
2022-11-17T09:35:38.197Z,1.20
2022-11-17T09:38:04.687Z,1.00
2022-11-17T09:40:37.530Z,1.00
2022-11-17T09:43:04.361Z,1.37
2022-11-17T09:45:30.758Z,1.20
2022-11-17T09:48:12.364Z,1.40
2022-11-17T09:50:43.644Z,1.30
2022-11-17T09:53:10.049Z,1.10
2022-11-17T09:55:36.543Z,1.10
2022-11-17T09:58:03.241Z,1.10
2022-11-17T10:00:29.641Z,1.30
2022-11-17T10:02:56.051Z,0.85
2022-11-17T10:05:22.455Z,0.90
2022-11-17T10:07:48.873Z,1.20
2022-11-17T10:10:15.311Z,1.00
2022-11-17T10:12:41.875Z,1.20
2022-11-17T10:15:08.312Z,1.52
2022-11-17T10:17:34.797Z,1.02
2022-11-17T10:20:01.262Z,0.50
2022-11-17T10:22:27.709Z,0.70
2022-11-17T10:24:54.108Z,0.50
2022-11-17T10:27:20.591Z,0.57
2022-11-17T10:29:47.050Z,0.63
2022-11-17T10:32:13.497Z,0.50
2022-11-17T10:34:41.646Z,0.50
2022-11-17T10:37:08.297Z,0.60
2022-11-17T10:39:36.630Z,0.80
2022-11-17T10:42:03.089Z,0.80
2022-11-17T10:44:29.546Z,0.47
2022-11-17T10:47:01.775Z,1.02
2022-11-17T10:49:28.629Z,0.80
2022-11-17T10:51:55.363Z,0.98
2022-11-17T10:54:21.814Z,0.60
2022-11-17T10:56:48.225Z,0.65
2022-11-17T10:59:14.743Z,0.90
2022-11-17T11:01:41.309Z,1.40
2022-11-17T11:04:07.829Z,0.70
2022-11-17T11:06:34.248Z,0.90
2022-11-17T11:09:00.804Z,0.80
2022-11-17T11:11:30.875Z,0.93
2022-11-17T11:13:59.797Z,0.90
2022-11-17T11:16:26.234Z,0.60
2022-11-17T11:18:52.711Z,0.65
2022-11-17T11:21:19.165Z,0.68
2022-11-17T11:23:45.582Z,0.60
2022-11-17T11:26:12.035Z,0.50
2022-11-17T11:28:42.679Z,0.47
2022-11-17T11:31:12.178Z,0.45
2022-11-17T11:33:38.620Z,0.60
2022-11-17T11:36:05.079Z,0.40
2022-11-17T11:38:31.539Z,0.60
2022-11-17T11:40:58.006Z,0.45
2022-11-17T11:43:24.404Z,0.50
2022-11-17T11:45:50.908Z,0.50
2022-11-17T11:48:17.355Z,0.70
2022-11-17T11:50:43.772Z,0.38
2022-11-17T11:53:10.185Z,0.68
2022-11-17T11:55:36.662Z,0.70
2022-11-17T11:58:03.078Z,0.70
2022-11-17T12:00:29.496Z,0.90
2022-11-17T12:02:55.994Z,0.50
2022-11-17T12:05:22.451Z,0.70
2022-11-17T12:07:48.886Z,0.60
2022-11-17T12:10:15.336Z,0.70
2022-11-17T12:12:41.816Z,0.85
2022-11-17T12:15:08.251Z,0.70
2022-11-17T12:17:34.741Z,0.70
2022-11-17T12:20:04.642Z,0.73
2022-11-17T12:22:34.186Z,1.00
2022-11-17T12:25:00.648Z,0.52
2022-11-17T12:27:27.111Z,0.50
2022-11-17T12:29:53.591Z,0.70
2022-11-17T12:32:20.125Z,0.60
2022-11-17T12:34:46.605Z,0.90
2022-11-17T12:37:13.069Z,0.50
2022-11-17T12:39:39.554Z,0.73
2022-11-17T12:42:05.997Z,0.65
2022-11-17T12:44:32.457Z,0.57
2022-11-17T12:46:58.927Z,0.65
2022-11-17T12:49:25.397Z,0.47
2022-11-17T12:51:51.865Z,0.50
2022-11-17T12:54:18.375Z,0.60
2022-11-17T12:56:44.775Z,0.63
2022-11-17T12:59:11.274Z,0.75
2022-11-17T13:01:37.771Z,0.55
2022-11-17T13:04:04.229Z,0.70
2022-11-17T13:06:35.790Z,0.60
2022-11-17T13:09:02.863Z,0.93
2022-11-17T13:11:29.372Z,0.70
2022-11-17T13:13:55.798Z,0.60
2022-11-17T13:16:22.273Z,0.70
2022-11-17T13:18:48.712Z,0.90
2022-11-17T13:21:15.172Z,0.70
2022-11-17T13:23:41.600Z,0.60
2022-11-17T13:26:08.112Z,1.30
2022-11-17T13:28:34.524Z,1.00
2022-11-17T13:31:00.998Z,0.85
2022-11-17T13:33:27.430Z,1.05
2022-11-17T13:35:53.945Z,0.90
2022-11-17T13:38:20.380Z,0.80
2022-11-17T13:40:46.828Z,1.52
2022-11-17T13:43:13.260Z,0.82
2022-11-17T13:45:39.661Z,1.10
2022-11-17T13:48:06.101Z,0.73
2022-11-17T13:50:32.552Z,0.73
2022-11-17T13:52:59.039Z,0.60
2022-11-17T13:55:25.464Z,1.20
2022-11-17T13:57:51.865Z,1.00
2022-11-17T14:00:18.292Z,0.82
2022-11-17T14:02:44.721Z,0.63
2022-11-17T14:05:11.208Z,0.90
2022-11-17T14:07:37.726Z,0.95
2022-11-17T14:10:08.222Z,1.00
2022-11-17T14:12:37.709Z,1.15
2022-11-17T14:15:04.147Z,0.85
2022-11-17T14:17:30.658Z,1.85
2022-11-17T14:19:57.203Z,1.80
2022-11-17T14:22:30.535Z,1.00
2022-11-17T14:24:58.107Z,1.05
2022-11-17T14:27:24.626Z,1.17
2022-11-17T14:29:51.219Z,0.80
2022-11-17T14:32:17.719Z,0.73
2022-11-17T14:34:44.134Z,0.68
2022-11-17T14:37:11.688Z,0.68
2022-11-17T14:39:38.316Z,0.70
2022-11-17T14:42:04.862Z,0.82
2022-11-17T14:44:31.415Z,0.63
2022-11-17T14:46:57.938Z,1.55
2022-11-17T14:49:24.473Z,0.88
2022-11-17T14:51:51.118Z,1.05
2022-11-17T14:54:17.582Z,1.08
2022-11-17T14:56:44.044Z,0.82
2022-11-17T14:59:10.438Z,0.80
2022-11-17T15:01:36.895Z,0.77
2022-11-17T15:04:20.574Z,1.48
2022-11-17T15:06:49.910Z,0.85
2022-11-17T15:09:16.573Z,1.10
2022-11-17T15:11:43.002Z,0.90
2022-11-17T15:14:09.474Z,1.70
2022-11-17T15:16:35.993Z,1.40
2022-11-17T15:19:02.424Z,1.55
2022-11-17T15:21:28.908Z,1.70
2022-11-17T15:23:55.367Z,1.55
2022-11-17T15:26:21.820Z,1.67
2022-11-17T15:28:48.230Z,1.25
2022-11-17T15:31:14.907Z,1.13
2022-11-17T15:33:41.466Z,1.52
2022-11-17T15:36:07.899Z,1.63
2022-11-17T15:38:34.346Z,1.88
2022-11-17T15:41:00.833Z,1.60
2022-11-17T15:43:27.409Z,1.60
2022-11-17T15:45:53.956Z,1.83
2022-11-17T15:48:20.404Z,1.45
2022-11-17T15:50:47.151Z,1.10
2022-11-17T15:53:13.657Z,1.40
2022-11-17T15:55:40.100Z,1.55
2022-11-17T15:58:06.553Z,1.70
2022-11-17T16:00:33.085Z,1.50
2022-11-17T16:02:59.604Z,2.15
2022-11-17T16:05:26.044Z,1.85
2022-11-17T16:07:52.532Z,2.83
2022-11-17T16:10:18.991Z,3.55
2022-11-17T16:12:45.531Z,3.78
2022-11-17T16:15:12.001Z,2.30
2022-11-17T16:17:38.498Z,3.90
2022-11-17T16:20:04.942Z,2.35
2022-11-17T16:22:31.400Z,2.95
2022-11-17T16:24:57.850Z,2.33
2022-11-17T16:27:24.301Z,2.42
2022-11-17T16:29:50.766Z,2.58
2022-11-17T16:32:17.641Z,3.40
2022-11-17T16:34:44.179Z,2.80
2022-11-17T16:37:10.683Z,2.40
2022-11-17T16:39:37.161Z,2.50
2022-11-17T16:42:04.198Z,2.20
2022-11-17T16:44:30.727Z,2.15
2022-11-17T16:46:57.273Z,3.45
2022-11-17T16:49:23.706Z,2.15
2022-11-17T16:51:50.105Z,2.78
2022-11-17T16:54:16.592Z,2.35
2022-11-17T16:56:43.015Z,3.03
2022-11-17T16:59:09.476Z,2.15
2022-11-17T17:01:35.952Z,2.88
2022-11-17T17:04:02.399Z,2.70
2022-11-17T17:06:28.921Z,2.15
2022-11-17T17:08:55.343Z,2.33
2022-11-17T17:11:21.892Z,2.30
2022-11-17T17:13:48.348Z,2.35
2022-11-17T17:16:14.950Z,2.20
2022-11-17T17:18:41.375Z,2.45
2022-11-17T17:21:07.855Z,2.30
2022-11-17T17:23:34.279Z,2.55
2022-11-17T17:26:00.719Z,2.90
2022-11-17T17:28:27.163Z,3.40
2022-11-17T17:30:53.598Z,3.45
2022-11-17T17:33:20.091Z,2.72
2022-11-17T17:35:46.617Z,3.03
2022-11-17T17:38:13.147Z,2.67
2022-11-17T17:40:39.601Z,2.90
2022-11-17T17:43:06.015Z,3.00
2022-11-17T17:45:32.483Z,3.03
2022-11-17T17:47:58.979Z,3.75
2022-11-17T17:50:25.428Z,2.50
2022-11-17T17:52:51.903Z,2.65
2022-11-17T17:55:18.325Z,2.67
2022-11-17T17:57:44.742Z,2.75
2022-11-17T18:00:11.211Z,2.53
2022-11-17T18:02:37.736Z,2.28
2022-11-17T18:05:04.267Z,1.88
2022-11-17T18:07:30.766Z,2.38
2022-11-17T18:09:57.163Z,2.28
2022-11-17T18:12:23.659Z,2.40
2022-11-17T18:14:50.108Z,1.95
2022-11-17T18:17:16.604Z,2.00
2022-11-17T18:19:43.063Z,2.53
2022-11-17T18:22:09.513Z,2.92
2022-11-17T18:24:35.941Z,2.28
2022-11-17T18:27:02.424Z,2.50
2022-11-17T18:29:30.074Z,2.60
2022-11-17T18:31:56.495Z,2.58
2022-11-17T18:34:22.931Z,2.45
2022-11-17T18:36:49.346Z,2.38
2022-11-17T18:39:16.058Z,2.78
2022-11-17T18:41:42.616Z,2.65
2022-11-17T18:44:09.070Z,2.80
2022-11-17T18:46:35.565Z,2.80
2022-11-17T18:49:02.037Z,2.47
2022-11-17T18:51:28.525Z,2.45
2022-11-17T18:53:55.030Z,2.95
2022-11-17T18:56:21.583Z,2.45
2022-11-17T18:58:48.065Z,2.80
2022-11-17T19:01:14.605Z,2.47
2022-11-17T19:03:41.162Z,2.83
2022-11-17T19:06:07.728Z,2.40
2022-11-17T19:08:34.174Z,2.58
2022-11-17T19:11:05.697Z,2.65
2022-11-17T19:13:32.630Z,2.40
2022-11-17T19:15:59.072Z,2.40
2022-11-17T19:18:25.514Z,2.30
2022-11-17T19:20:51.919Z,2.63
2022-11-17T19:23:18.341Z,2.53
2022-11-17T19:28:12.619Z,2.70
2022-11-17T19:30:39.028Z,2.47
2022-11-17T19:33:05.488Z,2.30
2022-11-17T19:35:31.942Z,2.53
2022-11-17T19:37:58.390Z,2.60
2022-11-17T19:40:24.804Z,2.38
2022-11-17T19:42:51.212Z,2.28
2022-11-17T19:45:17.705Z,2.75
2022-11-17T19:47:44.226Z,2.45
2022-11-17T19:50:10.705Z,1.55
2022-11-17T19:52:37.332Z,2.00
2022-11-17T19:55:03.746Z,2.60
2022-11-17T19:57:30.230Z,1.98
2022-11-17T19:59:56.948Z,2.78
2022-11-17T20:02:23.444Z,3.78
2022-11-17T20:04:49.919Z,2.72
2022-11-17T20:07:16.425Z,3.30
2022-11-17T20:09:43.003Z,3.25
2022-11-17T20:12:09.486Z,3.15
2022-11-17T20:14:35.935Z,3.83
2022-11-17T20:17:02.358Z,3.30
2022-11-17T20:19:28.779Z,3.05
2022-11-17T20:21:55.198Z,3.22
2022-11-17T20:24:21.678Z,3.70
2022-11-17T20:26:48.073Z,3.50
2022-11-17T20:29:14.837Z,2.88
2022-11-17T20:31:41.459Z,2.70
2022-11-17T20:34:07.861Z,2.67
2022-11-17T20:36:34.339Z,3.05
2022-11-17T20:39:00.855Z,3.05
2022-11-17T20:41:27.323Z,2.58
2022-11-17T20:43:53.775Z,2.67
2022-11-17T20:46:20.202Z,2.75
2022-11-17T20:48:46.652Z,2.65
2022-11-17T20:51:13.075Z,2.70
2022-11-17T20:53:39.505Z,2.80
2022-11-17T20:56:05.912Z,2.35
2022-11-17T20:58:32.513Z,2.78
2022-11-17T21:00:59.124Z,2.80
2022-11-17T21:03:25.584Z,2.67
2022-11-17T21:05:56.976Z,3.35
2022-11-17T21:08:24.780Z,3.10
2022-11-17T21:10:51.182Z,3.17
2022-11-17T21:13:17.589Z,2.95
2022-11-17T21:15:44.002Z,3.00
2022-11-17T21:18:10.419Z,2.78
2022-11-17T21:20:36.811Z,2.50
2022-11-17T21:23:03.333Z,3.50
2022-11-17T21:25:29.822Z,3.97
2022-11-17T21:27:56.221Z,3.17
2022-11-17T21:30:22.647Z,2.95
2022-11-17T21:32:49.102Z,3.53
2022-11-17T21:35:15.504Z,3.03
2022-11-17T21:37:41.953Z,2.53
2022-11-17T21:40:09.460Z,2.67
2022-11-17T21:42:36.053Z,2.85
2022-11-17T21:45:02.482Z,2.80
2022-11-17T21:47:28.984Z,3.28
2022-11-17T21:49:55.504Z,3.03
2022-11-17T21:52:21.962Z,2.83
2022-11-17T21:54:48.450Z,2.92
2022-11-17T21:57:14.890Z,3.20
2022-11-17T21:59:41.318Z,3.65
2022-11-17T22:02:07.837Z,3.10
2022-11-17T22:04:34.239Z,2.45
2022-11-17T22:07:00.734Z,2.63
2022-11-17T22:09:27.201Z,1.98
2022-11-17T22:11:53.729Z,2.65
2022-11-17T22:14:20.171Z,2.42
2022-11-17T22:16:46.601Z,3.20
2022-11-17T22:19:13.081Z,2.58
2022-11-17T22:21:39.496Z,2.70
2022-11-17T22:24:05.926Z,2.50
2022-11-17T22:26:32.406Z,2.00
2022-11-17T22:28:58.933Z,1.98
2022-11-17T22:31:25.336Z,2.38
2022-11-17T22:33:51.741Z,1.83
2022-11-17T22:36:18.136Z,2.15
2022-11-17T22:38:44.580Z,2.17
2022-11-17T22:41:11.021Z,1.85
2022-11-17T22:43:37.498Z,2.10
2022-11-17T22:46:03.935Z,2.25
2022-11-17T22:48:30.330Z,1.75
2022-11-17T22:50:56.744Z,1.92
2022-11-17T22:53:23.126Z,1.48
2022-11-17T22:55:49.578Z,1.52
2022-11-17T22:58:16.049Z,1.20
2022-11-17T23:00:42.529Z,1.13
2022-11-17T23:03:09.027Z,1.40
2022-11-17T23:05:35.495Z,1.17
2022-11-17T23:08:05.398Z,1.20
2022-11-17T23:10:34.729Z,1.38
2022-11-17T23:13:01.121Z,1.50
2022-11-17T23:15:27.599Z,1.13
2022-11-17T23:17:54.006Z,1.20
2022-11-17T23:20:20.455Z,1.40
2022-11-17T23:22:46.852Z,1.23
2022-11-17T23:25:13.274Z,1.65
2022-11-17T23:27:39.736Z,1.33
2022-11-17T23:30:06.134Z,1.27
2022-11-17T23:32:32.581Z,0.90
2022-11-17T23:34:58.988Z,1.15
2022-11-17T23:37:25.444Z,0.70
2022-11-17T23:39:51.880Z,0.50
2022-11-17T23:42:18.329Z,0.80
2022-11-17T23:44:44.754Z,0.60
2022-11-17T23:47:11.157Z,0.90
2022-11-17T23:49:37.540Z,0.70
2022-11-17T23:52:04.037Z,0.80
2022-11-17T23:54:30.449Z,0.70
2022-11-17T23:56:56.901Z,0.60
2022-11-17T23:59:23.369Z,0.60
